sensor_id;sensor_type;location;lat;lon;timestamp;pressure;altitude;pressure_sealevel;temperature;humidity
16580;BME280;8402;51.466;6.806;2022-12-20T00:01:52;101240.78;;;10.98;98.55
16580;BME280;8402;51.466;6.806;2022-12-20T00:04:20;101232.63;;;10.98;98.05
16580;BME280;8402;51.466;6.806;2022-12-20T00:06:49;101232.03;;;11.01;98.02
16580;BME280;8402;51.466;6.806;2022-12-20T00:09:17;101232.84;;;11.01;98.10
16580;BME280;8402;51.466;6.806;2022-12-20T00:11:45;101242.38;;;10.99;97.98
16580;BME280;8402;51.466;6.806;2022-12-20T00:14:13;101230.94;;;11.02;97.93
16580;BME280;8402;51.466;6.806;2022-12-20T00:16:42;101220.06;;;11.02;97.77
16580;BME280;8402;51.466;6.806;2022-12-20T00:19:11;101225.50;;;11.02;97.30
16580;BME280;8402;51.466;6.806;2022-12-20T00:21:39;101218.16;;;11.02;97.28
16580;BME280;8402;51.466;6.806;2022-12-20T00:24:10;101211.91;;;11.02;97.09
16580;BME280;8402;51.466;6.806;2022-12-20T00:26:38;101217.34;;;11.02;97.13
16580;BME280;8402;51.466;6.806;2022-12-20T00:29:06;101212.41;;;11.04;97.12
16580;BME280;8402;51.466;6.806;2022-12-20T00:31:34;101207.47;;;11.06;96.95
16580;BME280;8402;51.466;6.806;2022-12-20T00:34:02;101202.66;;;11.03;96.38
16580;BME280;8402;51.466;6.806;2022-12-20T00:36:31;101193.41;;;11.04;96.74
16580;BME280;8402;51.466;6.806;2022-12-20T00:39:01;101199.47;;;11.01;96.91
16580;BME280;8402;51.466;6.806;2022-12-20T00:41:32;101192.59;;;11.03;96.87
16580;BME280;8402;51.466;6.806;2022-12-20T00:44:00;101198.84;;;11.04;96.59
16580;BME280;8402;51.466;6.806;2022-12-20T00:46:29;101194.03;;;11.01;96.78
16580;BME280;8402;51.466;6.806;2022-12-20T00:48:58;101186.53;;;11.07;97.00
16580;BME280;8402;51.466;6.806;2022-12-20T00:51:28;101195.50;;;11.07;96.84
16580;BME280;8402;51.466;6.806;2022-12-20T00:53:58;101200.34;;;11.10;96.83
16580;BME280;8402;51.466;6.806;2022-12-20T00:56:26;101199.84;;;11.08;96.74
16580;BME280;8402;51.466;6.806;2022-12-20T00:58:57;101189.56;;;11.05;96.57
16580;BME280;8402;51.466;6.806;2022-12-20T01:01:27;101190.19;;;11.02;96.79
16580;BME280;8402;51.466;6.806;2022-12-20T01:03:56;101182.53;;;11.04;96.98
16580;BME280;8402;51.466;6.806;2022-12-20T01:06:25;101198.84;;;11.04;97.09
16580;BME280;8402;51.466;6.806;2022-12-20T01:08:53;101204.25;;;11.04;97.09
16580;BME280;8402;51.466;6.806;2022-12-20T01:11:23;101192.78;;;11.07;97.23
16580;BME280;8402;51.466;6.806;2022-12-20T01:13:53;101189.78;;;11.09;97.06
16580;BME280;8402;51.466;6.806;2022-12-20T01:16:26;101183.84;;;11.07;96.78
16580;BME280;8402;51.466;6.806;2022-12-20T01:18:54;101168.97;;;11.04;97.19
16580;BME280;8402;51.466;6.806;2022-12-20T01:21:24;101164.81;;;11.07;96.92
16580;BME280;8402;51.466;6.806;2022-12-20T01:23:53;101179.50;;;11.06;96.63
16580;BME280;8402;51.466;6.806;2022-12-20T01:26:24;101186.53;;;11.07;97.10
16580;BME280;8402;51.466;6.806;2022-12-20T01:28:54;101179.72;;;11.09;97.48
16580;BME280;8402;51.466;6.806;2022-12-20T01:31:23;101173.66;;;11.12;96.97
16580;BME280;8402;51.466;6.806;2022-12-20T01:33:52;101177.50;;;11.11;97.25
16580;BME280;8402;51.466;6.806;2022-12-20T01:36:21;101170.47;;;11.10;96.53
16580;BME280;8402;51.466;6.806;2022-12-20T01:38:54;101167.91;;;11.14;96.66
16580;BME280;8402;51.466;6.806;2022-12-20T01:41:23;101164.41;;;11.13;96.63
16580;BME280;8402;51.466;6.806;2022-12-20T01:43:52;101170.34;;;11.15;96.53
16580;BME280;8402;51.466;6.806;2022-12-20T01:46:24;101163.28;;;11.14;96.33
16580;BME280;8402;51.466;6.806;2022-12-20T01:48:55;101164.59;;;11.17;96.66
16580;BME280;8402;51.466;6.806;2022-12-20T01:51:26;101171.94;;;11.16;96.62
16580;BME280;8402;51.466;6.806;2022-12-20T01:53:59;101163.81;;;11.16;96.67
16580;BME280;8402;51.466;6.806;2022-12-20T01:56:28;101150.06;;;11.21;96.38
16580;BME280;8402;51.466;6.806;2022-12-20T01:58:56;101151.72;;;11.22;96.34
16580;BME280;8402;51.466;6.806;2022-12-20T02:01:26;101157.94;;;11.23;96.00
16580;BME280;8402;51.466;6.806;2022-12-20T02:03:55;101149.47;;;11.24;95.82
16580;BME280;8402;51.466;6.806;2022-12-20T02:06:25;101159.13;;;11.30;95.34
16580;BME280;8402;51.466;6.806;2022-12-20T02:08:55;101146.81;;;11.33;95.72
16580;BME280;8402;51.466;6.806;2022-12-20T02:11:45;101145.53;;;11.30;95.18
16580;BME280;8402;51.466;6.806;2022-12-20T02:14:35;101140.41;;;11.29;95.01
16580;BME280;8402;51.466;6.806;2022-12-20T02:17:18;101136.06;;;11.28;95.59
16580;BME280;8402;51.466;6.806;2022-12-20T02:20:17;101143.25;;;11.24;95.52
16580;BME280;8402;51.466;6.806;2022-12-20T02:23:05;101147.88;;;11.23;95.67
16580;BME280;8402;51.466;6.806;2022-12-20T02:25:43;101144.03;;;11.24;96.14
16580;BME280;8402;51.466;6.806;2022-12-20T02:28:25;101135.91;;;11.24;96.03
16580;BME280;8402;51.466;6.806;2022-12-20T02:31:07;101144.53;;;11.26;96.13
16580;BME280;8402;51.466;6.806;2022-12-20T02:33:38;101146.94;;;11.28;96.11
16580;BME280;8402;51.466;6.806;2022-12-20T02:36:08;101145.66;;;11.25;96.38
16580;BME280;8402;51.466;6.806;2022-12-20T02:38:37;101140.53;;;11.24;96.60
16580;BME280;8402;51.466;6.806;2022-12-20T02:41:08;101137.00;;;11.23;96.91
16580;BME280;8402;51.466;6.806;2022-12-20T02:43:40;101138.13;;;11.22;96.79
16580;BME280;8402;51.466;6.806;2022-12-20T02:46:29;101128.34;;;11.21;97.65
16580;BME280;8402;51.466;6.806;2022-12-20T02:49:03;101140.03;;;11.22;97.82
16580;BME280;8402;51.466;6.806;2022-12-20T02:51:33;101151.09;;;11.25;97.79
16580;BME280;8402;51.466;6.806;2022-12-20T02:54:01;101142.13;;;11.25;98.26
16580;BME280;8402;51.466;6.806;2022-12-20T02:56:33;101149.47;;;11.24;97.76
16580;BME280;8402;51.466;6.806;2022-12-20T02:59:07;101148.19;;;11.22;97.91
16580;BME280;8402;51.466;6.806;2022-12-20T03:01:40;101167.00;;;11.18;98.42
16580;BME280;8402;51.466;6.806;2022-12-20T03:04:12;101145.91;;;11.15;99.50
16580;BME280;8402;51.466;6.806;2022-12-20T03:06:55;101149.53;;;11.11;99.53
16580;BME280;8402;51.466;6.806;2022-12-20T03:09:23;101141.69;;;11.09;99.99
16580;BME280;8402;51.466;6.806;2022-12-20T03:11:52;101158.31;;;11.08;100.00
16580;BME280;8402;51.466;6.806;2022-12-20T03:14:20;101156.19;;;11.05;100.00
16580;BME280;8402;51.466;6.806;2022-12-20T03:16:50;101161.44;;;11.01;100.00
16580;BME280;8402;51.466;6.806;2022-12-20T03:19:18;101156.59;;;10.98;100.00
16580;BME280;8402;51.466;6.806;2022-12-20T03:21:46;101146.38;;;10.95;100.00
16580;BME280;8402;51.466;6.806;2022-12-20T03:24:14;101164.56;;;10.94;100.00
16580;BME280;8402;51.466;6.806;2022-12-20T03:26:43;101143.75;;;10.90;100.00
16580;BME280;8402;51.466;6.806;2022-12-20T03:29:11;101136.72;;;10.89;100.00
16580;BME280;8402;51.466;6.806;2022-12-20T03:31:39;101138.44;;;10.85;100.00
16580;BME280;8402;51.466;6.806;2022-12-20T03:34:08;101140.19;;;10.81;100.00
16580;BME280;8402;51.466;6.806;2022-12-20T03:36:36;101123.88;;;10.81;100.00
16580;BME280;8402;51.466;6.806;2022-12-20T03:39:05;101111.72;;;10.78;100.00
16580;BME280;8402;51.466;6.806;2022-12-20T03:41:33;101101.06;;;10.82;100.00
16580;BME280;8402;51.466;6.806;2022-12-20T03:44:00;101106.00;;;10.80;100.00
16580;BME280;8402;51.466;6.806;2022-12-20T03:46:29;101105.19;;;10.79;100.00
16580;BME280;8402;51.466;6.806;2022-12-20T03:48:57;101107.09;;;10.79;100.00
16580;BME280;8402;51.466;6.806;2022-12-20T03:51:27;101105.47;;;10.78;100.00
16580;BME280;8402;51.466;6.806;2022-12-20T03:53:55;101105.63;;;10.72;100.00
16580;BME280;8402;51.466;6.806;2022-12-20T03:56:23;101125.69;;;10.71;100.00
16580;BME280;8402;51.466;6.806;2022-12-20T03:58:51;101109.22;;;10.68;100.00
16580;BME280;8402;51.466;6.806;2022-12-20T04:01:21;101104.63;;;10.68;100.00
16580;BME280;8402;51.466;6.806;2022-12-20T04:03:50;101121.50;;;10.65;100.00
16580;BME280;8402;51.466;6.806;2022-12-20T04:06:18;101120.72;;;10.65;100.00
16580;BME280;8402;51.466;6.806;2022-12-20T04:08:48;101121.50;;;10.65;100.00
16580;BME280;8402;51.466;6.806;2022-12-20T04:11:16;101118.50;;;10.67;100.00
16580;BME280;8402;51.466;6.806;2022-12-20T04:13:45;101119.88;;;10.64;100.00
16580;BME280;8402;51.466;6.806;2022-12-20T04:16:15;101123.72;;;10.63;100.00
16580;BME280;8402;51.466;6.806;2022-12-20T04:18:44;101119.88;;;10.64;100.00
16580;BME280;8402;51.466;6.806;2022-12-20T04:21:12;101102.00;;;10.63;100.00
16580;BME280;8402;51.466;6.806;2022-12-20T04:23:41;101106.94;;;10.61;100.00
16580;BME280;8402;51.466;6.806;2022-12-20T04:26:11;101102.53;;;10.65;100.00
16580;BME280;8402;51.466;6.806;2022-12-20T04:28:39;101101.91;;;10.68;100.00
16580;BME280;8402;51.466;6.806;2022-12-20T04:31:08;101092.94;;;10.68;100.00
16580;BME280;8402;51.466;6.806;2022-12-20T04:33:36;101097.59;;;10.67;100.00
16580;BME280;8402;51.466;6.806;2022-12-20T04:36:05;101105.72;;;10.67;100.00
16580;BME280;8402;51.466;6.806;2022-12-20T04:38:33;101106.03;;;10.66;100.00
16580;BME280;8402;51.466;6.806;2022-12-20T04:41:01;101110.66;;;10.65;100.00
16580;BME280;8402;51.466;6.806;2022-12-20T04:43:30;101106.63;;;10.63;100.00
16580;BME280;8402;51.466;6.806;2022-12-20T04:45:58;101116.69;;;10.62;100.00
16580;BME280;8402;51.466;6.806;2022-12-20T04:48:27;101118.91;;;10.60;100.00
16580;BME280;8402;51.466;6.806;2022-12-20T04:51:15;101124.34;;;10.60;100.00
16580;BME280;8402;51.466;6.806;2022-12-20T04:53:43;101111.56;;;10.61;100.00
16580;BME280;8402;51.466;6.806;2022-12-20T04:56:16;101112.38;;;10.61;100.00
16580;BME280;8402;51.466;6.806;2022-12-20T04:58:47;101112.84;;;10.63;100.00
16580;BME280;8402;51.466;6.806;2022-12-20T05:01:16;101105.03;;;10.62;100.00
16580;BME280;8402;51.466;6.806;2022-12-20T05:03:44;101104.22;;;10.61;100.00
16580;BME280;8402;51.466;6.806;2022-12-20T05:06:13;101086.53;;;10.64;100.00
16580;BME280;8402;51.466;6.806;2022-12-20T05:08:41;101106.03;;;10.66;100.00
16580;BME280;8402;51.466;6.806;2022-12-20T05:11:09;101101.41;;;10.66;100.00
16580;BME280;8402;51.466;6.806;2022-12-20T05:13:37;101088.94;;;10.65;100.00
16580;BME280;8402;51.466;6.806;2022-12-20T05:16:06;101083.69;;;10.69;100.00
16580;BME280;8402;51.466;6.806;2022-12-20T05:18:34;101075.25;;;10.70;100.00
16580;BME280;8402;51.466;6.806;2022-12-20T05:21:08;101077.69;;;10.72;100.00
16580;BME280;8402;51.466;6.806;2022-12-20T05:23:53;101071.41;;;10.71;100.00
16580;BME280;8402;51.466;6.806;2022-12-20T05:26:39;101055.13;;;10.71;100.00
16580;BME280;8402;51.466;6.806;2022-12-20T05:29:07;101064.09;;;10.72;100.00
16580;BME280;8402;51.466;6.806;2022-12-20T05:31:37;101067.63;;;10.72;100.00
16580;BME280;8402;51.466;6.806;2022-12-20T05:34:05;101050.53;;;10.72;100.00
16580;BME280;8402;51.466;6.806;2022-12-20T05:36:33;101057.84;;;10.71;100.00
16580;BME280;8402;51.466;6.806;2022-12-20T05:39:01;101060.56;;;10.71;100.00
16580;BME280;8402;51.466;6.806;2022-12-20T05:41:30;101059.47;;;10.72;100.00
16580;BME280;8402;51.466;6.806;2022-12-20T05:43:58;101052.94;;;10.73;100.00
16580;BME280;8402;51.466;6.806;2022-12-20T05:46:27;101056.75;;;10.72;100.00
16580;BME280;8402;51.466;6.806;2022-12-20T05:48:56;101048.09;;;10.70;100.00
16580;BME280;8402;51.466;6.806;2022-12-20T05:51:24;101058.38;;;10.73;100.00
16580;BME280;8402;51.466;6.806;2022-12-20T05:53:52;101052.94;;;10.73;100.00
16580;BME280;8402;51.466;6.806;2022-12-20T05:56:20;101040.47;;;10.72;100.00
16580;BME280;8402;51.466;6.806;2022-12-20T05:58:48;101031.81;;;10.70;100.00
16580;BME280;8402;51.466;6.806;2022-12-20T06:01:16;101041.88;;;10.70;100.00
16580;BME280;8402;51.466;6.806;2022-12-20T06:03:45;101045.91;;;10.72;100.00
16580;BME280;8402;51.466;6.806;2022-12-20T06:06:14;101042.25;;;10.77;100.00
16580;BME280;8402;51.466;6.806;2022-12-20T06:08:42;101023.25;;;10.77;100.00
16580;BME280;8402;51.466;6.806;2022-12-20T06:11:10;101033.19;;;10.82;100.00
16580;BME280;8402;51.466;6.806;2022-12-20T06:13:38;101027.75;;;10.82;100.00
16580;BME280;8402;51.466;6.806;2022-12-20T06:16:06;101044.06;;;10.82;100.00
16580;BME280;8402;51.466;6.806;2022-12-20T06:18:34;101042.44;;;10.81;100.00
16580;BME280;8402;51.466;6.806;2022-12-20T06:21:02;101029.19;;;10.79;100.00
16580;BME280;8402;51.466;6.806;2022-12-20T06:23:32;101038.13;;;10.80;100.00
16580;BME280;8402;51.466;6.806;2022-12-20T06:26:00;101031.41;;;10.77;100.00
16580;BME280;8402;51.466;6.806;2022-12-20T06:28:29;101050.91;;;10.79;100.00
16580;BME280;8402;51.466;6.806;2022-12-20T06:30:57;101040.84;;;10.80;100.00
16580;BME280;8402;51.466;6.806;2022-12-20T06:33:25;101037.34;;;10.79;100.00
16580;BME280;8402;51.466;6.806;2022-12-20T06:35:53;101034.63;;;10.79;100.00
16580;BME280;8402;51.466;6.806;2022-12-20T06:38:21;101022.81;;;10.84;100.00
16580;BME280;8402;51.466;6.806;2022-12-20T06:40:51;101014.69;;;10.84;100.00
16580;BME280;8402;51.466;6.806;2022-12-20T06:43:19;101015.47;;;10.84;100.00
16580;BME280;8402;51.466;6.806;2022-12-20T06:45:47;101004.94;;;10.83;100.00
16580;BME280;8402;51.466;6.806;2022-12-20T06:48:15;101007.66;;;10.83;100.00
16580;BME280;8402;51.466;6.806;2022-12-20T06:50:43;100996.78;;;10.83;100.00
16580;BME280;8402;51.466;6.806;2022-12-20T06:53:17;101001.59;;;10.86;100.00
16580;BME280;8402;51.466;6.806;2022-12-20T06:55:46;100978.16;;;10.90;100.00
16580;BME280;8402;51.466;6.806;2022-12-20T06:58:17;100973.22;;;10.92;100.00
16580;BME280;8402;51.466;6.806;2022-12-20T07:00:45;100980.25;;;10.93;100.00
16580;BME280;8402;51.466;6.806;2022-12-20T07:03:13;100985.50;;;10.89;100.00
16580;BME280;8402;51.466;6.806;2022-12-20T07:05:42;100983.94;;;10.97;100.00
16580;BME280;8402;51.466;6.806;2022-12-20T07:08:10;100971.97;;;10.98;100.00
16580;BME280;8402;51.466;6.806;2022-12-20T07:10:38;100977.41;;;10.98;100.00
16580;BME280;8402;51.466;6.806;2022-12-20T07:13:06;100982.84;;;10.98;100.00
16580;BME280;8402;51.466;6.806;2022-12-20T07:15:36;100987.47;;;10.97;100.00
16580;BME280;8402;51.466;6.806;2022-12-20T07:18:04;100991.78;;;10.98;100.00
16580;BME280;8402;51.466;6.806;2022-12-20T07:20:32;100983.63;;;10.98;100.00
16580;BME280;8402;51.466;6.806;2022-12-20T07:23:00;100968.13;;;10.99;100.00
16580;BME280;8402;51.466;6.806;2022-12-20T07:25:28;100966.53;;;10.98;100.00
16580;BME280;8402;51.466;6.806;2022-12-20T07:27:56;100963.81;;;10.98;100.00
16580;BME280;8402;51.466;6.806;2022-12-20T07:30:24;100972.44;;;11.00;100.00
16580;BME280;8402;51.466;6.806;2022-12-20T07:32:53;100965.13;;;11.00;100.00
16580;BME280;8402;51.466;6.806;2022-12-20T07:35:21;100967.53;;;11.02;100.00
16580;BME280;8402;51.466;6.806;2022-12-20T07:37:51;100965.94;;;11.01;100.00
16580;BME280;8402;51.466;6.806;2022-12-20T07:40:19;100956.69;;;11.02;100.00
16580;BME280;8402;51.466;6.806;2022-12-20T07:42:47;100959.88;;;11.04;100.00
16580;BME280;8402;51.466;6.806;2022-12-20T07:45:16;100964.06;;;11.10;100.00
16580;BME280;8402;51.466;6.806;2022-12-20T07:47:44;100961.03;;;11.12;100.00
16580;BME280;8402;51.466;6.806;2022-12-20T07:50:13;100962.94;;;11.11;100.00
16580;BME280;8402;51.466;6.806;2022-12-20T07:52:43;100968.84;;;11.13;100.00
16580;BME280;8402;51.466;6.806;2022-12-20T07:55:13;100962.31;;;11.14;100.00
16580;BME280;8402;51.466;6.806;2022-12-20T07:57:43;100959.59;;;11.14;100.00
16580;BME280;8402;51.466;6.806;2022-12-20T08:00:15;100979.25;;;11.11;100.00
16580;BME280;8402;51.466;6.806;2022-12-20T08:02:48;100987.72;;;11.10;100.00
16580;BME280;8402;51.466;6.806;2022-12-20T08:05:19;100992.03;;;11.11;100.00
16580;BME280;8402;51.466;6.806;2022-12-20T08:07:48;100985.16;;;11.13;100.00
16580;BME280;8402;51.466;6.806;2022-12-20T08:10:24;100987.38;;;11.11;100.00
16580;BME280;8402;51.466;6.806;2022-12-20T08:12:54;100982.94;;;11.15;100.00
16580;BME280;8402;51.466;6.806;2022-12-20T08:15:22;100979.13;;;11.16;100.00
16580;BME280;8402;51.466;6.806;2022-12-20T08:17:50;100976.88;;;11.18;100.00
16580;BME280;8402;51.466;6.806;2022-12-20T08:20:20;100966.34;;;11.17;100.00
16580;BME280;8402;51.466;6.806;2022-12-20T08:22:48;100959.78;;;11.18;100.00
16580;BME280;8402;51.466;6.806;2022-12-20T08:25:16;100955.94;;;11.19;100.00
16580;BME280;8402;51.466;6.806;2022-12-20T08:27:44;100948.91;;;11.18;100.00
16580;BME280;8402;51.466;6.806;2022-12-20T08:30:13;100952.91;;;11.20;100.00
16580;BME280;8402;51.466;6.806;2022-12-20T08:32:41;100952.31;;;11.23;100.00
16580;BME280;8402;51.466;6.806;2022-12-20T08:35:09;100952.78;;;11.25;100.00
16580;BME280;8402;51.466;6.806;2022-12-20T08:37:40;100955.97;;;11.27;100.00
16580;BME280;8402;51.466;6.806;2022-12-20T08:40:08;100959.50;;;11.28;100.00
16580;BME280;8402;51.466;6.806;2022-12-20T08:42:36;100970.38;;;11.28;100.00
16580;BME280;8402;51.466;6.806;2022-12-20T08:45:05;100968.97;;;11.30;100.00
16580;BME280;8402;51.466;6.806;2022-12-20T08:47:33;100959.38;;;11.33;100.00
16580;BME280;8402;51.466;6.806;2022-12-20T08:50:01;100956.84;;;11.37;100.00
16580;BME280;8402;51.466;6.806;2022-12-20T08:52:29;100967.72;;;11.37;100.00
16580;BME280;8402;51.466;6.806;2022-12-20T08:54:58;100955.72;;;11.38;100.00
16580;BME280;8402;51.466;6.806;2022-12-20T08:57:27;100958.44;;;11.38;100.00
16580;BME280;8402;51.466;6.806;2022-12-20T08:59:55;100972.50;;;11.40;100.00
16580;BME280;8402;51.466;6.806;2022-12-20T09:02:23;100961.63;;;11.40;100.00
16580;BME280;8402;51.466;6.806;2022-12-20T09:04:51;100956.69;;;11.42;100.00
16580;BME280;8402;51.466;6.806;2022-12-20T09:07:19;100946.31;;;11.44;100.00
16580;BME280;8402;51.466;6.806;2022-12-20T09:09:47;100963.44;;;11.44;100.00
16580;BME280;8402;51.466;6.806;2022-12-20T09:12:16;100955.75;;;11.46;100.00
16580;BME280;8402;51.466;6.806;2022-12-20T09:14:44;100961.34;;;11.50;100.00
16580;BME280;8402;51.466;6.806;2022-12-20T09:17:12;100965.19;;;11.49;100.00
16580;BME280;8402;51.466;6.806;2022-12-20T09:19:40;100966.16;;;11.53;100.00
16580;BME280;8402;51.466;6.806;2022-12-20T09:22:08;100971.47;;;11.58;100.00
16580;BME280;8402;51.466;6.806;2022-12-20T09:24:36;100966.97;;;11.62;100.00
16580;BME280;8402;51.466;6.806;2022-12-20T09:27:04;100972.09;;;11.64;99.97
16580;BME280;8402;51.466;6.806;2022-12-20T09:29:33;100972.09;;;11.64;99.47
16580;BME280;8402;51.466;6.806;2022-12-20T09:32:01;100973.53;;;11.61;99.56
16580;BME280;8402;51.466;6.806;2022-12-20T09:34:29;100981.38;;;11.63;99.86
16580;BME280;8402;51.466;6.806;2022-12-20T09:36:57;100981.06;;;11.64;100.00
16580;BME280;8402;51.466;6.806;2022-12-20T09:39:25;100972.28;;;11.67;99.72
16580;BME280;8402;51.466;6.806;2022-12-20T09:41:53;100971.50;;;11.67;99.84
16580;BME280;8402;51.466;6.806;2022-12-20T09:44:25;100969.09;;;11.65;99.94
16580;BME280;8402;51.466;6.806;2022-12-20T09:46:57;100971.81;;;11.65;100.00
16580;BME280;8402;51.466;6.806;2022-12-20T09:49:39;100967.47;;;11.64;99.87
16580;BME280;8402;51.466;6.806;2022-12-20T09:52:26;100961.56;;;11.62;100.00
16580;BME280;8402;51.466;6.806;2022-12-20T09:55:06;100972.28;;;11.67;100.00
16580;BME280;8402;51.466;6.806;2022-12-20T09:57:50;100961.41;;;11.67;100.00
16580;BME280;8402;51.466;6.806;2022-12-20T10:00:21;100957.75;;;11.72;100.00
16580;BME280;8402;51.466;6.806;2022-12-20T10:02:50;100959.03;;;11.74;100.00
16580;BME280;8402;51.466;6.806;2022-12-20T10:05:37;100964.00;;;11.72;100.00
16580;BME280;8402;51.466;6.806;2022-12-20T10:08:15;100947.03;;;11.75;100.00
16580;BME280;8402;51.466;6.806;2022-12-20T10:10:54;100946.38;;;11.78;100.00
16580;BME280;8402;51.466;6.806;2022-12-20T10:13:42;100964.94;;;11.76;100.00
16580;BME280;8402;51.466;6.806;2022-12-20T10:16:28;100950.22;;;11.77;100.00
16580;BME280;8402;51.466;6.806;2022-12-20T10:19:10;100945.31;;;11.79;100.00
16580;BME280;8402;51.466;6.806;2022-12-20T10:21:46;100942.06;;;11.77;100.00
16580;BME280;8402;51.466;6.806;2022-12-20T10:24:18;100937.44;;;11.78;100.00
16580;BME280;8402;51.466;6.806;2022-12-20T10:26:48;100933.91;;;11.77;100.00
16580;BME280;8402;51.466;6.806;2022-12-20T10:29:17;100930.41;;;11.77;100.00
16580;BME280;8402;51.466;6.806;2022-12-20T10:31:48;100930.63;;;11.80;100.00
16580;BME280;8402;51.466;6.806;2022-12-20T10:34:18;100913.19;;;11.81;100.00
16580;BME280;8402;51.466;6.806;2022-12-20T10:36:48;100910.47;;;11.81;100.00
16580;BME280;8402;51.466;6.806;2022-12-20T10:39:39;100908.34;;;11.78;100.00
16580;BME280;8402;51.466;6.806;2022-12-20T10:42:23;100907.75;;;11.81;100.00
16580;BME280;8402;51.466;6.806;2022-12-20T10:44:52;100916.38;;;11.83;100.00
16580;BME280;8402;51.466;6.806;2022-12-20T10:47:25;100907.59;;;11.87;100.00
16580;BME280;8402;51.466;6.806;2022-12-20T10:50:08;100895.59;;;11.88;100.00
16580;BME280;8402;51.466;6.806;2022-12-20T10:52:36;100891.75;;;11.89;100.00
16580;BME280;8402;51.466;6.806;2022-12-20T10:55:34;100888.72;;;11.90;100.00
16580;BME280;8402;51.466;6.806;2022-12-20T10:58:03;100893.69;;;11.97;100.00
16580;BME280;8402;51.466;6.806;2022-12-20T11:00:32;100888.41;;;12.00;100.00
16580;BME280;8402;51.466;6.806;2022-12-20T11:03:11;100886.78;;;11.99;99.99
16580;BME280;8402;51.466;6.806;2022-12-20T11:05:54;100881.69;;;11.98;100.00
16580;BME280;8402;51.466;6.806;2022-12-20T11:08:23;100880.25;;;12.00;100.00
16580;BME280;8402;51.466;6.806;2022-12-20T11:11:16;100879.75;;;11.98;100.00
16580;BME280;8402;51.466;6.806;2022-12-20T11:13:45;100873.53;;;11.98;100.00
16580;BME280;8402;51.466;6.806;2022-12-20T11:16:32;100868.09;;;11.98;100.00
16580;BME280;8402;51.466;6.806;2022-12-20T11:19:12;100857.84;;;11.95;100.00
16580;BME280;8402;51.466;6.806;2022-12-20T11:21:48;100858.81;;;11.99;100.00
16580;BME280;8402;51.466;6.806;2022-12-20T11:24:26;100863.28;;;11.95;100.00
16580;BME280;8402;51.466;6.806;2022-12-20T11:27:06;100858.00;;;11.98;100.00
16580;BME280;8402;51.466;6.806;2022-12-20T11:30:03;100861.03;;;11.97;99.99
16580;BME280;8402;51.466;6.806;2022-12-20T11:32:42;100858.97;;;12.02;100.00
16580;BME280;8402;51.466;6.806;2022-12-20T11:35:18;100859.78;;;12.03;99.76
16580;BME280;8402;51.466;6.806;2022-12-20T11:37:56;100858.19;;;12.02;99.86
16580;BME280;8402;51.466;6.806;2022-12-20T11:40:37;100871.44;;;12.03;100.00
16580;BME280;8402;51.466;6.806;2022-12-20T11:43:26;100858.19;;;12.02;100.00
16580;BME280;8402;51.466;6.806;2022-12-20T11:46:26;100847.63;;;12.09;100.00
16580;BME280;8402;51.466;6.806;2022-12-20T11:49:09;100849.69;;;12.12;99.95
16580;BME280;8402;51.466;6.806;2022-12-20T11:51:45;100849.53;;;12.17;99.62
16580;BME280;8402;51.466;6.806;2022-12-20T11:54:19;100844.09;;;12.17;99.88
16580;BME280;8402;51.466;6.806;2022-12-20T11:56:50;100841.38;;;12.17;99.70
16580;BME280;8402;51.466;6.806;2022-12-20T11:59:34;100840.09;;;12.15;99.94
16580;BME280;8402;51.466;6.806;2022-12-20T12:02:08;100833.19;;;12.17;99.85
16580;BME280;8402;51.466;6.806;2022-12-20T12:04:40;100829.34;;;12.18;100.00
16580;BME280;8402;51.466;6.806;2022-12-20T12:07:13;100827.09;;;12.20;99.81
16580;BME280;8402;51.466;6.806;2022-12-20T12:09:51;100827.09;;;12.20;99.83
16580;BME280;8402;51.466;6.806;2022-12-20T12:12:24;100833.50;;;12.24;99.91
16580;BME280;8402;51.466;6.806;2022-12-20T12:14:58;100828.53;;;12.26;99.59
16580;BME280;8402;51.466;6.806;2022-12-20T12:17:34;100832.06;;;12.27;99.20
16580;BME280;8402;51.466;6.806;2022-12-20T12:20:20;100824.53;;;12.32;99.14
16580;BME280;8402;51.466;6.806;2022-12-20T12:22:53;100817.63;;;12.35;98.83
16580;BME280;8402;51.466;6.806;2022-12-20T12:25:26;100836.38;;;12.36;98.77
16580;BME280;8402;51.466;6.806;2022-12-20T12:27:54;100832.84;;;12.45;98.67
16580;BME280;8402;51.466;6.806;2022-12-20T12:30:21;100827.38;;;12.45;98.65
16580;BME280;8402;51.466;6.806;2022-12-20T12:32:54;100822.88;;;12.49;97.62
16580;BME280;8402;51.466;6.806;2022-12-20T12:35:45;100820.16;;;12.49;97.36
16580;BME280;8402;51.466;6.806;2022-12-20T12:38:52;100819.03;;;12.50;97.65
16580;BME280;8402;51.466;6.806;2022-12-20T12:44:38;100817.75;;;12.56;97.35
16580;BME280;8402;51.466;6.806;2022-12-20T12:47:13;100827.19;;;12.58;97.42
16580;BME280;8402;51.466;6.806;2022-12-20T12:49:46;100829.59;;;12.60;97.51
16580;BME280;8402;51.466;6.806;2022-12-20T12:52:40;100826.22;;;12.54;97.23
16580;BME280;8402;51.466;6.806;2022-12-20T12:55:41;100831.03;;;12.57;97.70
16580;BME280;8402;51.466;6.806;2022-12-20T13:01:48;100832.47;;;12.55;99.45
16580;BME280;8402;51.466;6.806;2022-12-20T13:07:26;100832.16;;;12.48;100.00
16580;BME280;8402;51.466;6.806;2022-12-20T13:09:55;100829.63;;;12.43;100.00
16580;BME280;8402;51.466;6.806;2022-12-20T13:12:55;100828.84;;;12.33;100.00
16580;BME280;8402;51.466;6.806;2022-12-20T13:16:11;100833.81;;;12.31;100.00
16580;BME280;8402;51.466;6.806;2022-12-20T13:21:37;100823.41;;;12.33;100.00
16580;BME280;8402;51.466;6.806;2022-12-20T13:24:49;100819.75;;;12.29;100.00
16580;BME280;8402;51.466;6.806;2022-12-20T13:27:30;100823.72;;;12.32;100.00
16580;BME280;8402;51.466;6.806;2022-12-20T13:33:19;100813.00;;;12.27;100.00
16580;BME280;8402;51.466;6.806;2022-12-20T13:35:58;100818.13;;;12.28;100.00